»·PEaware :: UAL280 KDEN-KEGE

UAL280 :: KDEN-KEGE

FLIGHT INFORMATION

Flight Status: Arrived
Operator:
United Airlines
More flights by this operator :: More flights under this callsign
Pilot: Ion I. (24133)
Aircraft: BOEING 737-800
(B738)
More flights by this aircraft type
Origin: KDEN Denver Intl
United States
Destination: KEGE Eagle Co Regl
United States
More flights between these airports :: More routes between these airports
Route: ZIMMR1 CHNGY QNDRY
File this flight plan on PilotEdge
Remarks:
Altitude:
(Current/Filed)
20,000ft
Speed:
(Current/Filed)
460kts
Departed: 22-Aug-20 05:35 PM
Arrived: 22-Aug-20 05:59 PM
Distance/Time
Traveled:
104nm/0:24
Distance/Time
To Go:
Arrived

Flight Plot

Page will automatically refresh every two minutes.

Flight plan parsing failed; only flown route is shown


Map Options




Map Legend


Flown Route
Filed Route
Departure Airport
Arrival Airport
Navaid (VOR, NDB)
Fix

Horizontal Profiles

Position Reports

Time Latitude Longitude Heading Altitude Ground
Speed
22-Aug-20 16:55 39.858130 -104.671496 0 5439ft 0kts
22-Aug-20 16:56 39.858130 -104.671496 0 5439ft 0kts
22-Aug-20 16:57 39.858130 -104.671496 0 5439ft 0kts
22-Aug-20 16:58 39.858130 -104.671496 0 5439ft 0kts
22-Aug-20 16:59 39.858130 -104.671496 0 5439ft 0kts
22-Aug-20 17:00 39.858130 -104.671496 0 5439ft 0kts
22-Aug-20 17:01 39.858130 -104.671496 0 5439ft 0kts
22-Aug-20 17:02 39.858130 -104.671496 0 5439ft 0kts
22-Aug-20 17:03 39.858130 -104.671496 0 5439ft 0kts
22-Aug-20 17:05 39.858130 -104.671496 0 5439ft 0kts
22-Aug-20 17:06 39.858130 -104.671496 0 5439ft 0kts
22-Aug-20 17:07 39.858130 -104.671496 0 5439ft 0kts
22-Aug-20 17:08 39.858130 -104.671496 0 5439ft 0kts
22-Aug-20 17:09 39.858130 -104.671496 0 5439ft 0kts
22-Aug-20 17:10 39.858130 -104.671496 0 5439ft 0kts
22-Aug-20 17:11 39.858130 -104.671496 0 5439ft 0kts
22-Aug-20 17:12 39.858130 -104.671496 0 5439ft 0kts
22-Aug-20 17:13 39.858130 -104.671496 0 5439ft 0kts
22-Aug-20 17:14 39.858130 -104.671496 0 5439ft 0kts
22-Aug-20 17:16 39.858130 -104.671496 0 5439ft 0kts
22-Aug-20 17:17 39.858130 -104.671496 0 5439ft 0kts
22-Aug-20 17:18 39.858130 -104.671496 0 5439ft 0kts
22-Aug-20 17:19 39.858130 -104.671496 0 5439ft 0kts
22-Aug-20 17:20 39.858130 -104.671496 0 5439ft 0kts
22-Aug-20 17:21 39.858130 -104.671496 0 5439ft 0kts
22-Aug-20 17:22 39.858130 -104.671496 0 5439ft 0kts
22-Aug-20 17:23 39.857540 -104.671379 331 5439ft 2kts
22-Aug-20 17:24 39.857357 -104.670871 270 5439ft 0kts
22-Aug-20 17:25 39.857357 -104.670871 270 5439ft 0kts
22-Aug-20 17:26 39.857357 -104.670871 270 5439ft 0kts
22-Aug-20 17:27 39.857398 -104.674837 270 5439ft 15kts
22-Aug-20 17:28 39.857435 -104.678533 270 5439ft 16kts
22-Aug-20 17:29 39.856752 -104.680089 263 5439ft 8kts
22-Aug-20 17:30 39.856884 -104.682090 274 5439ft 12kts
22-Aug-20 17:31 39.853295 -104.684042 180 5439ft 21kts
22-Aug-20 17:32 39.846744 -104.684091 180 5439ft 22kts
22-Aug-20 17:33 39.841934 -104.684175 180 5439ft 3kts
22-Aug-20 17:33 39.840654 -104.685583 270 5439ft 20kts
22-Aug-20 17:35 39.842416 -104.741019 285 6443ft 191kts
22-Aug-20 17:36 39.875354 -104.803877 308 8387ft 247kts
22-Aug-20 17:36 39.912704 -104.871182 306 9750ft 301kts
22-Aug-20 17:37 39.935414 -104.980271 271 10610ft 348kts
22-Aug-20 17:39 39.937411 -105.131149 272 14031ft 362kts
22-Aug-20 17:39 39.940189 -105.241264 275 16731ft 367kts
22-Aug-20 17:40 39.951386 -105.375587 276 19549ft 382kts
22-Aug-20 17:41 39.962436 -105.516556 276 20359ft 399kts
22-Aug-20 17:42 39.973442 -105.660549 276 20483ft 399kts
22-Aug-20 17:43 39.980782 -105.805495 274 20541ft 399kts
22-Aug-20 17:44 39.987586 -105.949956 274 20500ft 399kts
22-Aug-20 17:45 39.994712 -106.089616 275 20473ft 379kts
22-Aug-20 17:46 40.001385 -106.225310 273 18941ft 370kts
22-Aug-20 17:47 40.007257 -106.357636 273 17208ft 358kts
22-Aug-20 17:48 39.986064 -106.468727 224 15491ft 353kts
22-Aug-20 17:49 39.901136 -106.489410 183 15193ft 304kts
22-Aug-20 17:50 39.824385 -106.517451 198 15121ft 267kts
22-Aug-20 17:51 39.759765 -106.544767 199 14530ft 235kts
22-Aug-20 17:52 39.700330 -106.576645 218 12977ft 234kts
22-Aug-20 17:53 39.683805 -106.649776 267 11428ft 203kts
22-Aug-20 17:54 39.672202 -106.718327 257 10027ft 187kts
22-Aug-20 17:55 39.659280 -106.780520 254 8750ft 177kts
22-Aug-20 17:56 39.650825 -106.843487 262 7492ft 167kts
22-Aug-20 17:57 39.644255 -106.902320 263 6579ft 159kts
22-Aug-20 17:58 39.640518 -106.927817 137 6523ft 13kts
22-Aug-20 17:59 39.641124 -106.920803 82 6523ft 24kts
22-Aug-20 18:00 39.641206 -106.914743 86 6523ft 6kts
22-Aug-20 18:01 39.640761 -106.913825 170 6523ft 0kts
22-Aug-20 18:02 39.640761 -106.913825 170 6523ft 0kts
22-Aug-20 18:03 39.640761 -106.913825 170 6523ft 0kts
22-Aug-20 18:04 39.640761 -106.913825 170 6523ft 0kts
22-Aug-20 18:05 39.640761 -106.913825 170 6523ft 0kts
22-Aug-20 18:06 39.640761 -106.913825 170 6523ft 0kts
22-Aug-20 18:07 39.640761 -106.913825 170 6523ft 0kts
22-Aug-20 18:08 39.640761 -106.913825 170 6523ft 0kts
22-Aug-20 18:09 39.640761 -106.913825 170 6523ft 0kts
22-Aug-20 18:10 39.640761 -106.913825 170 6523ft 0kts
22-Aug-20 18:11 39.640761 -106.913825 170 6523ft 0kts
22-Aug-20 18:12 39.640761 -106.913825 170 6523ft 0kts

Navigation Log

Ident Type
Flight plan parsing failed, navigation log unavailable